Time;durP1;ratioP1;P1;durP2;ratioP2;P2;SDS_P1;SDS_P2;PMS_P1;PMS_P2;Temp;Humidity;BMP_temperature;BMP_pressure;BME280_temperature;BME280_humidity;BME280_pressure;Samples;Min_cycle;Max_cycle;Signal;HPM_P1;HPM_P2
2022/07/27 00:01:18;;;;;;;3.30;1.50;;;;;;;17.20;50.01;102100.13;5128478;28;20435;-77
2022/07/27 00:03:50;;;;;;;5.90;1.33;;;;;;;17.18;50.09;102112.78;5129444;28;20437;-76
2022/07/27 00:06:22;;;;;;;8.00;1.83;;;;;;;17.13;50.10;102104.44;5129663;28;20424;-76
2022/07/27 00:08:56;;;;;;;7.25;1.65;;;;;;;17.10;50.29;102105.59;5131462;28;20420;-76
2022/07/27 00:11:28;;;;;;;2.25;1.23;;;;;;;17.09;50.35;102106.56;5131543;28;20904;-76
2022/07/27 00:14:00;;;;;;;4.47;1.80;;;;;;;17.03;50.45;102100.06;5137747;28;21925;-76
2022/07/27 00:16:33;;;;;;;2.87;1.40;;;;;;;16.96;50.58;102096.34;5128053;28;20750;-75
2022/07/27 00:19:05;;;;;;;6.03;1.63;;;;;;;17.00;50.65;102104.88;5128536;28;20412;-75
2022/07/27 00:21:37;;;;;;;7.60;1.85;;;;;;;16.96;50.71;102104.34;5125060;28;20420;-74
2022/07/27 00:24:11;;;;;;;5.68;1.50;;;;;;;16.95;50.73;102093.84;5128877;28;20420;-74
2022/07/27 00:26:43;;;;;;;7.38;1.70;;;;;;;16.81;50.87;102080.09;5127433;28;20433;-75
2022/07/27 00:29:16;;;;;;;3.90;1.50;;;;;;;16.88;50.92;102093.66;5127381;28;20424;-75
2022/07/27 00:31:48;;;;;;;8.98;1.80;;;;;;;16.87;50.90;102093.81;5129018;28;20437;-77
2022/07/27 00:34:20;;;;;;;3.88;1.40;;;;;;;16.80;51.09;102093.63;5129997;28;20535;-76
2022/07/27 00:36:53;;;;;;;6.05;1.70;;;;;;;16.83;51.13;102102.13;5133073;28;20430;-75
2022/07/27 00:39:26;;;;;;;4.60;1.40;;;;;;;16.78;51.27;102090.28;5129928;28;20428;-76
2022/07/27 00:41:59;;;;;;;4.38;1.40;;;;;;;16.68;51.33;102085.03;5128104;28;20408;-76
2022/07/27 00:44:33;;;;;;;5.50;1.75;;;;;;;16.78;51.46;102079.59;5128464;28;20440;-76
2022/07/27 00:47:05;;;;;;;5.30;1.95;;;;;;;16.89;51.43;102087.31;5130938;28;22123;-76
2022/07/27 00:49:38;;;;;;;5.20;1.67;;;;;;;16.91;51.48;102096.03;5124960;28;20416;-76
2022/07/27 00:52:10;;;;;;;6.00;2.20;;;;;;;16.89;51.44;102094.50;5134532;28;20433;-76
2022/07/27 00:54:46;;;;;;;7.10;2.15;;;;;;;16.94;51.77;102101.03;5135298;28;20420;-76
2022/07/27 00:57:19;;;;;;;5.32;2.05;;;;;;;16.95;51.61;102097.34;5128417;28;20782;-76
2022/07/27 00:59:51;;;;;;;5.72;1.70;;;;;;;16.97;51.78;102095.38;5129950;28;20426;-76
2022/07/27 01:02:25;;;;;;;3.17;1.70;;;;;;;16.98;51.84;102099.72;5130877;28;20479;-76
2022/07/27 01:04:57;;;;;;;5.50;2.45;;;;;;;16.99;51.85;102092.53;5129816;28;20516;-76
2022/07/27 01:07:31;;;;;;;4.60;1.88;;;;;;;16.99;51.85;102098.69;5132338;28;20428;-76
2022/07/27 01:10:06;;;;;;;4.87;1.90;;;;;;;17.00;51.85;102097.72;5127384;28;20516;-76
2022/07/27 01:12:38;;;;;;;7.80;2.38;;;;;;;17.03;51.98;102094.72;5125948;28;20878;-76
2022/07/27 01:15:12;;;;;;;4.53;1.85;;;;;;;17.04;52.07;102099.06;5125402;28;20431;-76
2022/07/27 01:17:47;;;;;;;7.85;2.40;;;;;;;17.07;52.14;102086.41;5117698;28;20769;-76
2022/07/27 01:20:19;;;;;;;4.40;1.88;;;;;;;17.03;52.12;102084.06;5128835;28;20434;-76
2022/07/27 01:22:53;;;;;;;6.72;1.73;;;;;;;17.07;52.18;102075.72;5127997;28;20428;-76
2022/07/27 01:25:25;;;;;;;6.07;1.75;;;;;;;17.16;52.26;102077.41;5127944;28;20471;-77
2022/07/27 01:27:57;;;;;;;5.63;1.63;;;;;;;17.19;52.24;102082.44;5128075;28;20958;-77
2022/07/27 01:30:30;;;;;;;7.73;2.10;;;;;;;17.20;52.22;102086.75;5129047;28;20439;-76
2022/07/27 01:33:03;;;;;;;5.90;1.85;;;;;;;17.25;52.30;102081.78;5130978;28;20437;-76
2022/07/27 01:35:37;;;;;;;4.85;1.70;;;;;;;17.28;52.21;102076.09;5130718;28;20434;-76
2022/07/27 01:38:13;;;;;;;8.05;2.25;;;;;;;17.30;52.26;102079.44;5121328;28;20412;-76
2022/07/27 01:40:45;;;;;;;5.25;1.45;;;;;;;17.33;52.28;102079.09;5128586;28;20432;-76
2022/07/27 01:43:17;;;;;;;2.97;1.52;;;;;;;17.36;52.38;102078.78;5127354;28;20514;-75
2022/07/27 01:45:50;;;;;;;4.40;1.75;;;;;;;17.38;52.24;102073.28;5125643;28;20431;-76
2022/07/27 01:48:22;;;;;;;5.07;1.77;;;;;;;17.19;52.19;102034.38;5133047;28;20421;-76
2022/07/27 01:50:55;;;;;;;6.47;1.73;;;;;;;17.42;52.39;102078.13;5124756;28;20428;-76
2022/07/27 01:53:28;;;;;;;4.60;1.77;;;;;;;17.35;52.47;102069.09;5124278;28;20436;-76
2022/07/27 01:56:01;;;;;;;8.57;1.73;;;;;;;17.47;52.38;102075.81;5127405;28;20422;-76
2022/07/27 01:58:33;;;;;;;6.37;1.63;;;;;;;17.51;52.61;102081.66;5129831;28;20889;-75
2022/07/27 02:01:06;;;;;;;4.20;1.88;;;;;;;17.49;52.35;102076.47;5130351;28;20424;-76
2022/07/27 02:03:39;;;;;;;5.68;1.38;;;;;;;17.57;52.41;102080.16;5137884;28;20522;-76
2022/07/27 02:06:11;;;;;;;3.28;1.27;;;;;;;17.58;52.30;102081.81;5128131;28;20911;-76
2022/07/27 02:08:44;;;;;;;5.90;1.60;;;;;;;17.60;52.38;102082.50;5124496;28;20975;-76
2022/07/27 02:14:07;;;;;;;4.28;1.60;;;;;;;17.60;52.54;102074.50;5127017;28;20515;-75
2022/07/27 02:16:39;;;;;;;5.80;1.40;;;;;;;17.62;52.54;102080.47;5134677;28;20454;-76
2022/07/27 02:19:12;;;;;;;4.00;1.67;;;;;;;17.62;52.72;102073.31;5128773;28;20470;-76
2022/07/27 02:21:44;;;;;;;2.92;1.35;;;;;;;17.56;52.75;102057.09;5130075;28;20521;-75
2022/07/27 02:24:19;;;;;;;5.47;1.52;;;;;;;17.64;52.85;102071.31;5130413;28;20408;-76
2022/07/27 02:26:52;;;;;;;5.18;1.70;;;;;;;17.64;52.75;102065.97;5130185;28;20434;-76
2022/07/27 02:29:24;;;;;;;7.57;1.97;;;;;;;17.66;52.83;102063.97;5130425;28;20408;-78
2022/07/27 02:31:57;;;;;;;4.05;1.52;;;;;;;17.68;52.95;102061.09;5130280;28;20521;-77
2022/07/27 02:34:29;;;;;;;4.40;1.70;;;;;;;17.67;53.07;102060.28;5126973;28;20436;-75
2022/07/27 02:37:02;;;;;;;10.13;1.90;;;;;;;17.70;53.06;102069.81;5129886;28;20430;-75
2022/07/27 02:39:35;;;;;;;6.77;2.00;;;;;;;17.68;53.22;102078.00;5124305;28;20431;-75
2022/07/27 02:42:08;;;;;;;6.07;1.85;;;;;;;17.69;53.21;102068.16;5136280;28;20425;-75
2022/07/27 02:44:41;;;;;;;4.10;1.63;;;;;;;17.70;53.35;102067.13;5131668;28;20901;-77
2022/07/27 02:47:13;;;;;;;4.25;1.92;;;;;;;17.71;53.37;102066.13;5130107;28;20778;-76
2022/07/27 02:49:45;;;;;;;6.80;2.22;;;;;;;17.72;53.44;102062.47;5134962;28;20415;-76
2022/07/27 02:52:17;;;;;;;4.78;1.73;;;;;;;17.71;53.50;102071.47;5133193;28;20949;-75
2022/07/27 02:54:51;;;;;;;4.82;1.67;;;;;;;17.68;53.66;102066.47;5131434;28;20503;-75
2022/07/27 02:57:23;;;;;;;6.45;1.35;;;;;;;17.68;53.73;102066.47;5129788;28;20538;-75
2022/07/27 02:59:56;;;;;;;6.03;1.73;;;;;;;17.68;53.75;102066.47;5134461;28;20863;-75
2022/07/27 03:02:28;;;;;;;5.25;1.35;;;;;;;17.45;53.73;102037.72;5130899;28;20454;-75
2022/07/27 03:05:01;;;;;;;6.95;1.70;;;;;;;17.69;53.80;102068.97;5133060;28;20428;-75
2022/07/27 03:07:34;;;;;;;2.20;1.10;;;;;;;17.73;53.78;102066.81;5139556;28;21138;-75
2022/07/27 03:10:09;;;;;;;2.78;1.42;;;;;;;17.74;53.69;102071.13;5138804;28;20466;-76
2022/07/27 03:12:41;;;;;;;5.20;1.50;;;;;;;17.58;53.63;102049.75;5134211;28;20439;-75
2022/07/27 03:15:13;;;;;;;5.37;1.47;;;;;;;17.76;53.66;102063.78;5137815;28;20949;-75
2022/07/27 03:17:46;;;;;;;8.27;2.10;;;;;;;17.68;53.61;102055.78;5129163;28;20412;-76
2022/07/27 03:20:18;;;;;;;5.82;1.50;;;;;;;17.78;53.58;102072.53;5130487;28;20440;-75
2022/07/27 03:22:50;;;;;;;4.82;1.38;;;;;;;17.78;53.48;102066.34;5130980;28;20581;-75
2022/07/27 03:25:24;;;;;;;5.32;1.63;;;;;;;17.61;53.55;102038.75;5130539;28;20412;-75
2022/07/27 03:27:57;;;;;;;5.75;1.65;;;;;;;17.77;53.42;102065.50;5129275;28;20440;-76
2022/07/27 03:30:29;;;;;;;4.05;1.48;;;;;;;17.79;53.29;102063.50;5127037;28;20424;-75
2022/07/27 03:33:01;;;;;;;4.03;1.23;;;;;;;17.74;53.22;102058.63;5128587;28;20430;-77
2022/07/27 03:35:34;;;;;;;2.60;1.13;;;;;;;17.80;53.30;102072.34;5129368;28;20437;-76
2022/07/27 03:38:06;;;;;;;5.57;2.00;;;;;;;17.80;53.18;102072.34;5128650;28;20730;-76
2022/07/27 03:40:40;;;;;;;3.75;1.20;;;;;;;17.78;53.19;102075.19;5126863;28;20416;-75
2022/07/27 03:43:13;;;;;;;8.93;1.90;;;;;;;17.77;53.09;102072.63;5128514;28;20585;-75
2022/07/27 03:45:45;;;;;;;6.85;1.42;;;;;;;17.75;53.07;102084.34;5125517;28;20428;-75
2022/07/27 03:48:17;;;;;;;6.60;1.70;;;;;;;17.73;53.05;102072.16;5126365;28;20507;-77
2022/07/27 03:50:50;;;;;;;10.00;1.90;;;;;;;17.74;52.71;102071.13;5130885;28;20777;-76
2022/07/27 03:53:22;;;;;;;7.32;1.55;;;;;;;17.73;53.01;102074.81;5132999;28;20451;-76
2022/07/27 03:55:56;;;;;;;5.93;1.77;;;;;;;17.72;53.08;102078.50;5135300;28;20506;-76
2022/07/27 03:58:28;;;;;;;6.10;1.55;;;;;;;17.72;52.97;102079.34;5130138;28;20428;-75
2022/07/27 04:01:00;;;;;;;7.03;1.60;;;;;;;17.72;52.81;102082.00;5128411;28;20744;-76
2022/07/27 04:03:33;;;;;;;5.97;1.90;;;;;;;17.72;52.87;102078.50;5128277;28;20463;-76
2022/07/27 04:06:05;;;;;;;4.90;1.70;;;;;;;17.71;52.87;102077.66;5130987;28;20459;-76
2022/07/27 04:08:37;;;;;;;7.85;1.63;;;;;;;17.70;52.74;102077.81;5129005;28;20432;-78
2022/07/27 04:11:11;;;;;;;6.60;1.45;;;;;;;17.73;52.82;102085.50;5124751;28;20842;-77
2022/07/27 04:13:45;;;;;;;7.70;1.80;;;;;;;17.74;52.83;102080.00;5129762;28;20426;-77
2022/07/27 04:16:18;;;;;;;7.93;1.70;;;;;;;17.62;52.90;102064.44;5128238;28;20448;-77
2022/07/27 04:18:52;;;;;;;5.43;1.50;;;;;;;17.80;52.69;102077.69;5129579;28;20585;-77
2022/07/27 04:21:24;;;;;;;6.53;1.58;;;;;;;17.84;52.75;102085.22;5126806;28;20428;-76
2022/07/27 04:23:56;;;;;;;5.72;1.27;;;;;;;17.88;52.58;102083.88;5084871;28;20426;-76
2022/07/27 04:26:30;;;;;;;5.97;1.35;;;;;;;17.93;52.53;102086.88;5150893;28;20430;-76
2022/07/27 04:29:03;;;;;;;5.93;1.77;;;;;;;17.97;52.45;102098.91;5135840;28;20414;-77
2022/07/27 04:31:35;;;;;;;4.95;1.88;;;;;;;18.00;52.51;102097.72;5145753;28;21579;-76
2022/07/27 04:34:07;;;;;;;5.30;1.65;;;;;;;17.98;52.47;102089.88;5132640;28;21094;-78
2022/07/27 04:36:39;;;;;;;4.88;1.27;;;;;;;18.05;52.38;102089.19;5131166;28;20412;-76
2022/07/27 04:39:12;;;;;;;9.75;2.08;;;;;;;17.98;52.28;102073.81;5129016;28;20463;-76
2022/07/27 04:41:46;;;;;;;5.35;1.63;;;;;;;18.14;52.21;102093.53;5132036;28;20428;-75
2022/07/27 04:44:18;;;;;;;6.72;1.55;;;;;;;18.20;52.08;102088.34;5128984;28;20463;-75
2022/07/27 04:46:50;;;;;;;7.85;1.60;;;;;;;18.27;51.95;102093.00;5134353;28;20413;-75
2022/07/27 04:49:22;;;;;;;4.88;1.27;;;;;;;18.21;51.63;102078.50;5133970;28;20420;-76
2022/07/27 04:51:55;;;;;;;6.95;1.63;;;;;;;18.36;51.79;102090.16;5136311;28;20412;-76
2022/07/27 04:54:27;;;;;;;6.28;1.48;;;;;;;18.41;51.59;102092.31;5139958;28;21011;-75
2022/07/27 04:57:01;;;;;;;11.82;1.77;;;;;;;18.41;51.50;102084.31;5132718;28;20411;-76
2022/07/27 04:59:33;;;;;;;8.93;2.00;;;;;;;18.51;51.37;102102.81;5124978;28;20428;-76
2022/07/27 05:02:05;;;;;;;4.13;1.35;;;;;;;18.59;51.30;102105.50;5130853;28;20430;-75
2022/07/27 05:04:37;;;;;;;5.30;1.60;;;;;;;18.61;51.06;102100.78;5120780;28;20446;-76
2022/07/27 05:07:15;;;;;;;8.50;2.05;;;;;;;18.71;50.92;102112.16;5147254;28;20419;-75
2022/07/27 05:09:47;;;;;;;8.65;1.52;;;;;;;18.67;50.95;102100.09;5148916;28;20422;-77
2022/07/27 05:12:20;;;;;;;6.20;1.42;;;;;;;18.65;50.59;102099.44;5136242;28;20421;-76
2022/07/27 05:14:53;;;;;;;7.93;1.90;;;;;;;18.59;50.35;102098.28;5149314;28;20462;-75
2022/07/27 05:17:25;;;;;;;5.57;1.75;;;;;;;18.61;50.57;102122.19;5146212;28;20454;-77
2022/07/27 05:19:57;;;;;;;5.90;1.50;;;;;;;18.60;50.43;102115.19;5147947;28;20440;-74
2022/07/27 05:22:30;;;;;;;5.88;1.48;;;;;;;18.61;50.29;102117.69;5147333;28;20440;-77
2022/07/27 05:25:02;;;;;;;9.57;1.80;;;;;;;18.61;50.20;102108.81;5138313;28;20435;-76
2022/07/27 05:27:37;;;;;;;6.18;2.13;;;;;;;18.60;50.27;102115.19;5134635;28;20429;-76
2022/07/27 05:30:11;;;;;;;7.63;1.77;;;;;;;18.56;50.08;102114.69;5127165;28;20423;-77
2022/07/27 05:32:44;;;;;;;5.30;1.98;;;;;;;18.61;49.71;102090.09;5129909;28;20418;-75
2022/07/27 05:35:16;;;;;;;7.38;1.30;;;;;;;20.02;48.38;102109.56;5133811;28;20474;-77
2022/07/27 05:37:48;;;;;;;7.57;1.90;;;;;;;21.81;46.51;102118.31;5143014;28;20430;-76
2022/07/27 05:40:21;;;;;;;3.08;1.30;;;;;;;23.37;44.56;102092.69;5129267;28;20420;-76
2022/07/27 05:42:54;;;;;;;4.43;1.08;;;;;;;25.17;42.61;102119.53;5130943;28;20425;-76
2022/07/27 05:45:27;;;;;;;4.15;0.98;;;;;;;26.59;40.96;102112.59;5129962;28;20432;-76
2022/07/27 05:47:59;;;;;;;6.55;0.90;;;;;;;27.80;39.37;102118.91;5131555;28;20437;-76
2022/07/27 05:50:31;;;;;;;5.97;0.90;;;;;;;28.80;38.08;102108.91;5130731;28;20427;-77
2022/07/27 05:53:04;;;;;;;4.03;0.80;;;;;;;29.79;36.91;102116.78;5130582;28;20404;-76
2022/07/27 05:55:37;;;;;;;3.10;1.02;;;;;;;30.78;35.91;102120.66;5132298;28;20431;-76
2022/07/27 05:58:10;;;;;;;5.10;0.90;;;;;;;31.68;34.53;102121.91;5131702;28;20428;-77
2022/07/27 06:00:43;;;;;;;3.00;0.80;;;;;;;32.55;33.57;102124.38;5140058;28;20484;-75
2022/07/27 06:03:15;;;;;;;4.35;0.90;;;;;;;33.33;32.55;102120.81;5146482;28;20424;-76
2022/07/27 06:05:47;;;;;;;3.08;0.75;;;;;;;33.97;31.67;102118.38;5150048;28;20462;-76
2022/07/27 06:08:18;;;;;;;5.72;0.90;;;;;;;34.64;31.02;102120.94;5148821;28;20782;-76
2022/07/27 06:10:51;;;;;;;2.72;0.90;;;;;;;35.14;30.50;102124.53;5149040;28;20449;-76
2022/07/27 06:13:24;;;;;;;2.65;0.60;;;;;;;35.62;29.47;102137.66;5149171;28;21101;-77
2022/07/27 06:15:57;;;;;;;3.05;0.65;;;;;;;36.04;29.04;102133.44;5149525;28;20479;-76
2022/07/27 06:18:29;;;;;;;2.55;0.68;;;;;;;36.39;28.31;102134.97;5148418;28;20414;-76
2022/07/27 06:21:01;;;;;;;2.85;0.85;;;;;;;36.67;28.03;102131.38;5148420;28;20856;-76
2022/07/27 06:23:34;;;;;;;5.03;1.02;;;;;;;36.91;27.57;102135.97;5147778;28;20430;-76
2022/07/27 06:26:06;;;;;;;4.68;0.85;;;;;;;37.11;27.21;102132.97;5149268;28;20959;-77
2022/07/27 06:28:40;;;;;;;4.63;1.27;;;;;;;37.19;26.82;102138.91;5145975;28;20501;-76
2022/07/27 06:31:12;;;;;;;3.47;0.85;;;;;;;37.48;26.38;102134.06;5137847;28;20903;-77
2022/07/27 06:33:45;;;;;;;4.93;1.00;;;;;;;37.54;26.20;102137.56;5149145;28;21270;-76
2022/07/27 06:36:17;;;;;;;4.68;0.85;;;;;;;37.69;25.83;102139.22;5148105;28;20437;-77
2022/07/27 06:38:50;;;;;;;10.27;1.40;;;;;;;38.00;25.42;102150.53;5149088;28;20942;-77
2022/07/27 06:41:22;;;;;;;3.08;0.93;;;;;;;38.30;24.95;102138.09;5147688;28;20441;-77
2022/07/27 06:43:56;;;;;;;3.95;0.95;;;;;;;38.73;24.54;102141.34;5149332;28;20425;-77
2022/07/27 06:46:28;;;;;;;5.35;1.10;;;;;;;39.09;24.07;102142.53;5144164;28;20492;-77
2022/07/27 06:49:01;;;;;;;3.50;1.00;;;;;;;38.98;24.00;102136.41;5139985;28;20770;-77
2022/07/27 06:51:33;;;;;;;4.40;0.88;;;;;;;39.06;23.78;102143.16;5148197;28;20782;-77
2022/07/27 06:54:06;;;;;;;2.93;0.73;;;;;;;39.06;23.76;102146.72;5148732;28;21079;-77
2022/07/27 06:56:38;;;;;;;4.05;1.20;;;;;;;39.03;23.54;102144.59;5146778;28;20422;-77
2022/07/27 06:59:12;;;;;;;5.07;0.80;;;;;;;39.20;23.23;102149.44;5130842;28;20422;-77
2022/07/27 07:01:44;;;;;;;4.47;0.88;;;;;;;39.29;23.04;102141.25;5133420;28;20432;-77
2022/07/27 07:04:16;;;;;;;3.35;1.08;;;;;;;39.04;23.15;102139.88;5138878;28;20426;-76
2022/07/27 07:06:49;;;;;;;2.03;0.73;;;;;;;39.22;22.96;102149.13;5131318;28;20836;-75
2022/07/27 07:09:21;;;;;;;3.28;0.70;;;;;;;39.19;22.91;102158.84;5127516;28;20432;-77
2022/07/27 07:11:53;;;;;;;3.67;0.90;;;;;;;38.88;23.01;102151.28;5130619;28;20430;-77
2022/07/27 07:14:27;;;;;;;2.90;0.77;;;;;;;38.04;23.47;102154.34;5127014;28;20447;-76
2022/07/27 07:17:00;;;;;;;4.15;0.80;;;;;;;37.55;23.51;102156.53;5127988;28;20424;-76
2022/07/27 07:19:33;;;;;;;5.00;1.02;;;;;;;37.25;23.62;102144.03;5128061;28;20416;-77
2022/07/27 07:22:05;;;;;;;3.08;0.98;;;;;;;36.83;23.79;102161.44;5128274;28;20420;-78
2022/07/27 07:24:37;;;;;;;4.07;0.60;;;;;;;36.23;24.05;102168.16;5129934;28;20437;-76
2022/07/27 07:27:09;;;;;;;3.72;0.70;;;;;;;36.11;23.92;102165.00;5125165;28;20418;-76
2022/07/27 07:29:43;;;;;;;4.67;0.87;;;;;;;36.40;23.47;102158.63;5124751;28;20432;-77
2022/07/27 07:32:15;;;;;;;2.88;0.73;;;;;;;36.86;23.31;102171.88;5128216;28;20994;-78
2022/07/27 07:34:48;;;;;;;4.95;0.98;;;;;;;37.06;23.18;102166.09;5128080;28;20790;-77
2022/07/27 07:37:21;;;;;;;4.55;0.70;;;;;;;37.32;23.23;102163.78;5128891;28;20439;-78
2022/07/27 07:39:53;;;;;;;4.22;0.90;;;;;;;37.28;23.09;102170.19;5127260;28;20537;-78
2022/07/27 07:42:26;;;;;;;3.63;0.93;;;;;;;36.23;23.77;102175.59;5127681;28;20433;-79
2022/07/27 07:45:00;;;;;;;2.50;1.08;;;;;;;35.04;24.65;102169.34;5132176;28;20515;-79
2022/07/27 07:47:32;;;;;;;3.95;1.00;;;;;;;34.43;24.89;102167.63;5135800;28;20497;-77
2022/07/27 07:50:07;;;;;;;3.95;1.00;;;;;;;34.67;24.92;102164.28;5134348;28;20426;-78
2022/07/27 07:52:39;;;;;;;3.55;1.23;;;;;;;34.68;24.77;102165.09;5124716;28;20494;-77
2022/07/27 07:55:11;;;;;;;3.47;0.73;;;;;;;34.72;24.86;102164.28;5128485;28;20442;-78
2022/07/27 07:57:44;;;;;;;3.65;0.90;;;;;;;34.71;24.34;102170.84;5126456;28;20926;-75
2022/07/27 08:00:19;;;;;;;3.40;0.65;;;;;;;34.04;25.12;102169.34;5128642;28;20427;-78
2022/07/27 08:02:53;;;;;;;6.15;1.00;;;;;;;34.02;25.02;102166.06;5132773;28;20918;-76
2022/07/27 08:05:27;;;;;;;3.10;0.63;;;;;;;34.19;24.67;102172.06;5133045;28;20434;-75
2022/07/27 08:07:59;;;;;;;4.18;0.60;;;;;;;33.53;25.08;102172.06;5127550;28;20423;-78
2022/07/27 08:10:33;;;;;;;1.65;0.52;;;;;;;33.02;25.50;102176.31;5129454;28;20420;-76
2022/07/27 08:13:05;;;;;;;2.10;0.68;;;;;;;32.67;25.76;102173.41;5124436;28;20427;-76
2022/07/27 08:15:39;;;;;;;3.85;0.82;;;;;;;32.60;25.37;102179.94;5125948;28;20424;-76
2022/07/27 08:18:11;;;;;;;2.90;0.97;;;;;;;31.65;25.78;102179.78;5125868;28;20427;-77
2022/07/27 08:20:44;;;;;;;1.70;0.60;;;;;;;30.86;26.23;102172.06;5127135;28;20448;-77
2022/07/27 08:23:16;;;;;;;2.03;0.90;;;;;;;30.52;26.66;102171.31;5128633;28;20949;-77
2022/07/27 08:25:48;;;;;;;1.08;0.50;;;;;;;30.54;26.50;102163.72;5133352;28;20595;-77
2022/07/27 08:28:21;;;;;;;2.03;0.80;;;;;;;30.58;26.27;102178.47;5126881;28;20420;-77
2022/07/27 08:30:54;;;;;;;3.90;1.15;;;;;;;30.25;26.51;102177.44;5125059;28;20419;-77
2022/07/27 08:33:27;;;;;;;2.70;0.90;;;;;;;29.82;26.64;102172.63;5126399;28;20439;-76
2022/07/27 08:35:59;;;;;;;2.83;0.95;;;;;;;28.90;27.35;102182.56;5113737;28;20427;-75
2022/07/27 08:38:33;;;;;;;3.95;0.80;;;;;;;27.97;28.08;102191.53;5124780;28;20793;-78
2022/07/27 08:41:08;;;;;;;4.88;0.90;;;;;;;27.58;28.61;102191.88;5127377;28;20428;-75
2022/07/27 08:43:44;;;;;;;3.03;1.02;;;;;;;27.34;28.98;102190.13;5123563;28;20431;-75
2022/07/27 08:46:19;;;;;;;3.37;0.80;;;;;;;27.09;29.28;102187.47;5129603;28;20520;-76
2022/07/27 08:48:52;;;;;;;4.60;1.20;;;;;;;26.95;29.48;102186.81;5126575;28;20435;-74
2022/07/27 08:51:25;;;;;;;4.15;1.10;;;;;;;26.88;29.32;102196.91;5129615;28;20431;-75
2022/07/27 08:53:57;;;;;;;2.40;0.88;;;;;;;26.82;29.77;102187.81;5099012;28;20500;-74
2022/07/27 08:56:32;;;;;;;4.05;0.80;;;;;;;26.78;29.91;102196.59;5122746;28;20567;-75
2022/07/27 08:59:05;;;;;;;6.22;0.82;;;;;;;26.74;29.88;102184.56;5128819;28;20407;-75
2022/07/27 09:01:39;;;;;;;2.90;1.10;;;;;;;26.67;30.01;102184.66;5126583;28;20433;-75
2022/07/27 09:04:11;;;;;;;4.18;1.13;;;;;;;26.70;30.14;102203.16;5121412;28;20479;-75
2022/07/27 09:06:46;;;;;;;3.75;1.02;;;;;;;26.61;30.18;102191.78;5121474;28;21088;-75
2022/07/27 09:09:20;;;;;;;2.43;0.80;;;;;;;26.56;30.40;102202.44;5123812;28;21109;-75
2022/07/27 09:12:09;;;;;;;7.13;1.10;;;;;;;26.78;30.39;102197.44;5125641;28;20428;-74
2022/07/27 09:14:42;;;;;;;3.88;0.88;;;;;;;27.02;30.09;102198.41;5120645;28;20423;-74
2022/07/27 09:17:26;;;;;;;2.45;0.70;;;;;;;27.28;29.93;102201.88;5123707;28;20953;-75
2022/07/27 09:20:01;;;;;;;4.20;0.88;;;;;;;27.47;29.92;102195.38;5124957;28;20463;-75
2022/07/27 09:22:42;;;;;;;4.75;1.10;;;;;;;27.53;29.81;102191.75;5122063;28;20897;-76
2022/07/27 09:25:17;;;;;;;5.60;1.20;;;;;;;27.71;29.61;102179.16;5113598;28;20423;-74
2022/07/27 09:27:55;;;;;;;1.92;0.77;;;;;;;27.79;29.71;102192.44;5124784;28;20431;-75
2022/07/27 09:30:27;;;;;;;1.83;0.85;;;;;;;27.51;29.87;102188.44;5121305;28;20455;-74
2022/07/27 09:33:07;;;;;;;1.10;0.50;;;;;;;27.52;29.94;102191.97;5122228;28;20549;-75
2022/07/27 09:35:40;;;;;;;1.95;0.50;;;;;;;27.64;29.78;102189.31;5122180;28;20428;-76
2022/07/27 09:38:19;;;;;;;2.22;0.73;;;;;;;27.25;29.99;102180.63;5124659;28;20519;-76
2022/07/27 09:41:00;;;;;;;3.95;0.90;;;;;;;27.20;30.13;102188.66;5125075;28;20567;-75
2022/07/27 09:43:44;;;;;;;2.27;0.60;;;;;;;27.20;29.83;102194.06;5125677;28;20432;-76
2022/07/27 09:46:16;;;;;;;1.88;0.35;;;;;;;26.94;29.96;102168.88;5124539;28;20442;-76
2022/07/27 09:48:50;;;;;;;3.35;0.93;;;;;;;27.31;29.48;102193.28;5126156;28;20794;-76
2022/07/27 09:51:24;;;;;;;2.72;0.40;;;;;;;27.55;29.39;102197.75;5126117;28;20431;-76
2022/07/27 09:53:58;;;;;;;1.73;0.77;;;;;;;27.71;29.22;102184.59;5126777;28;20504;-76
2022/07/27 09:56:32;;;;;;;9.10;0.75;;;;;;;27.92;29.06;102186.81;5126499;28;20482;-76
2022/07/27 09:59:05;;;;;;;1.80;0.75;;;;;;;27.77;29.09;102183.66;5128477;28;20883;-76
2022/07/27 10:01:39;;;;;;;2.92;0.50;;;;;;;27.59;29.18;102182.69;5141821;28;20426;-76
2022/07/27 10:04:13;;;;;;;4.63;0.73;;;;;;;27.80;29.08;102178.63;5141872;28;20506;-76
2022/07/27 10:06:45;;;;;;;2.58;0.90;;;;;;;27.54;29.31;102201.53;5145257;28;20537;-76
2022/07/27 10:09:18;;;;;;;1.10;0.47;;;;;;;26.64;29.98;102185.91;5145319;28;20481;-75
2022/07/27 10:11:52;;;;;;;2.35;0.70;;;;;;;26.32;30.23;102181.59;5144560;28;20894;-75
2022/07/27 10:14:25;;;;;;;2.50;0.40;;;;;;;26.28;30.09;102180.41;5141567;28;20483;-75
2022/07/27 10:16:57;;;;;;;2.88;0.60;;;;;;;26.19;30.04;102177.13;5137112;28;20932;-75
2022/07/27 10:19:41;;;;;;;1.80;0.50;;;;;;;26.02;30.34;102178.75;5124672;28;20503;-76
2022/07/27 10:22:14;;;;;;;2.72;0.60;;;;;;;26.16;30.17;102181.09;5126765;28;20420;-74
2022/07/27 10:24:59;;;;;;;3.20;0.90;;;;;;;26.20;30.15;102176.06;5127784;28;20885;-75
2022/07/27 10:27:31;;;;;;;2.63;0.80;;;;;;;26.35;29.94;102181.97;5120487;28;20793;-75
2022/07/27 10:30:05;;;;;;;1.17;0.60;;;;;;;26.48;29.88;102181.06;5135544;28;20418;-77
2022/07/27 10:32:38;;;;;;;1.87;0.67;;;;;;;26.53;30.10;102175.81;5144910;28;20498;-77
2022/07/27 10:35:33;;;;;;;2.67;0.90;;;;;;;26.62;29.99;102176.34;5143515;28;20418;-76
2022/07/27 10:38:13;;;;;;;5.07;1.15;;;;;;;26.57;30.04;102179.75;5132301;28;20430;-76
2022/07/27 10:40:46;;;;;;;3.40;0.90;;;;;;;26.42;30.48;102181.94;5145158;28;20434;-74
2022/07/27 10:43:22;;;;;;;2.73;1.00;;;;;;;26.30;30.86;102178.31;5126673;28;20454;-75
2022/07/27 10:45:58;;;;;;;4.18;0.82;;;;;;;26.20;30.86;102184.19;5127134;28;20432;-74
2022/07/27 10:48:39;;;;;;;1.77;0.70;;;;;;;26.14;31.11;102190.53;5125862;28;20435;-74
2022/07/27 10:51:15;;;;;;;3.45;0.90;;;;;;;25.95;31.56;102192.31;5125329;28;20642;-75
2022/07/27 10:53:50;;;;;;;4.18;1.20;;;;;;;25.71;31.87;102191.22;5127516;28;20515;-76
2022/07/27 10:56:45;;;;;;;6.93;1.10;;;;;;;25.51;32.26;102191.31;5128201;28;20431;-75
2022/07/27 10:59:50;;;;;;;3.17;1.10;;;;;;;25.20;32.67;102197.50;5126868;28;20790;-75
2022/07/27 11:02:39;;;;;;;2.60;0.80;;;;;;;24.88;33.19;102201.94;5128325;28;20423;-76
2022/07/27 11:05:12;;;;;;;5.63;1.23;;;;;;;24.89;33.02;102195.50;5124548;28;20499;-75
2022/07/27 11:07:51;;;;;;;7.47;1.20;;;;;;;25.06;32.93;102186.72;5130625;28;20524;-79
2022/07/27 11:10:26;;;;;;;3.03;1.00;;;;;;;25.26;32.90;102186.66;5116508;28;20430;-79
2022/07/27 11:12:59;;;;;;;2.60;0.90;;;;;;;25.51;32.89;102175.09;5127050;28;20424;-78
2022/07/27 11:15:32;;;;;;;2.63;1.02;;;;;;;25.99;32.47;102182.72;5118113;28;20423;-78
2022/07/27 11:18:04;;;;;;;7.47;0.93;;;;;;;26.33;32.22;102177.88;5120468;28;20436;-77
2022/07/27 11:20:37;;;;;;;4.10;0.90;;;;;;;26.41;32.12;102172.13;5130996;28;20453;-77
2022/07/27 11:23:20;;;;;;;2.83;1.00;;;;;;;26.14;32.39;102164.28;5134332;28;20422;-78
2022/07/27 11:26:03;;;;;;;1.60;0.50;;;;;;;26.17;32.38;102179.25;5129025;28;20742;-78
2022/07/27 11:28:37;;;;;;;3.80;0.90;;;;;;;26.29;32.16;102182.88;5133403;28;20485;-78
2022/07/27 11:31:12;;;;;;;4.30;1.10;;;;;;;26.36;32.14;102177.41;5126790;28;20418;-75
2022/07/27 11:33:54;;;;;;;2.00;0.93;;;;;;;26.44;32.06;102174.41;5129182;28;20421;-78
2022/07/27 11:36:42;;;;;;;2.03;0.90;;;;;;;26.44;32.05;102190.66;5126995;28;20449;-78
2022/07/27 11:39:18;;;;;;;3.17;1.05;;;;;;;26.41;32.18;102185.69;5126484;28;20423;-79
2022/07/27 11:41:55;;;;;;;5.35;0.80;;;;;;;26.47;32.07;102190.22;5130302;28;20428;-78
2022/07/27 11:44:29;;;;;;;2.47;0.80;;;;;;;26.34;32.23;102179.50;5116599;28;20438;-78
2022/07/27 11:47:01;;;;;;;2.25;0.90;;;;;;;26.40;32.33;102184.03;5129080;28;20420;-78
2022/07/27 11:49:34;;;;;;;4.30;1.33;;;;;;;26.39;32.21;102185.09;5128976;28;20443;-79
2022/07/27 11:52:10;;;;;;;5.35;1.70;;;;;;;26.11;32.60;102186.38;5117452;28;20438;-77
2022/07/27 11:54:50;;;;;;;5.53;1.40;;;;;;;26.03;32.58;102167.69;5124647;28;20427;-76
2022/07/27 11:57:32;;;;;;;3.72;0.90;;;;;;;25.84;32.79;102160.56;5128765;28;20435;-78